sensor_id;sensor_type;location;lat;lon;timestamp;P1;durP1;ratioP1;P2;durP2;ratioP2
76995;SDS011;65929;49.062;10.338;2024-03-02T00:00:51;16.23;;;7.78;;
76995;SDS011;65929;49.062;10.338;2024-03-02T00:01:52;20.90;;;9.00;;
76995;SDS011;65929;49.062;10.338;2024-03-02T00:02:53;20.20;;;9.43;;
76995;SDS011;65929;49.062;10.338;2024-03-02T00:03:54;19.75;;;8.63;;
76995;SDS011;65929;49.062;10.338;2024-03-02T00:04:56;18.65;;;8.20;;
76995;SDS011;65929;49.062;10.338;2024-03-02T00:05:57;19.20;;;8.80;;
76995;SDS011;65929;49.062;10.338;2024-03-02T00:06:58;20.08;;;8.90;;
76995;SDS011;65929;49.062;10.338;2024-03-02T00:07:59;18.58;;;8.07;;
76995;SDS011;65929;49.062;10.338;2024-03-02T00:09:01;21.42;;;9.10;;
76995;SDS011;65929;49.062;10.338;2024-03-02T00:10:04;19.25;;;8.38;;
76995;SDS011;65929;49.062;10.338;2024-03-02T00:11:10;19.55;;;8.95;;
76995;SDS011;65929;49.062;10.338;2024-03-02T00:12:15;17.08;;;7.88;;
76995;SDS011;65929;49.062;10.338;2024-03-02T00:13:16;17.70;;;8.27;;
76995;SDS011;65929;49.062;10.338;2024-03-02T00:14:22;18.58;;;8.63;;
76995;SDS011;65929;49.062;10.338;2024-03-02T00:16:46;19.70;;;7.88;;
76995;SDS011;65929;49.062;10.338;2024-03-02T00:17:47;19.77;;;8.70;;
76995;SDS011;65929;49.062;10.338;2024-03-02T00:18:53;17.27;;;8.40;;
76995;SDS011;65929;49.062;10.338;2024-03-02T00:19:55;19.63;;;8.52;;
76995;SDS011;65929;49.062;10.338;2024-03-02T00:20:56;18.10;;;8.20;;
76995;SDS011;65929;49.062;10.338;2024-03-02T00:22:00;18.02;;;8.18;;
76995;SDS011;65929;49.062;10.338;2024-03-02T00:23:02;19.92;;;8.75;;
76995;SDS011;65929;49.062;10.338;2024-03-02T00:24:07;20.40;;;8.65;;
76995;SDS011;65929;49.062;10.338;2024-03-02T00:25:21;17.25;;;8.30;;
76995;SDS011;65929;49.062;10.338;2024-03-02T00:26:22;20.67;;;9.15;;
76995;SDS011;65929;49.062;10.338;2024-03-02T00:27:22;22.05;;;8.55;;
76995;SDS011;65929;49.062;10.338;2024-03-02T00:28:25;17.13;;;7.47;;
76995;SDS011;65929;49.062;10.338;2024-03-02T00:29:27;16.60;;;7.47;;
76995;SDS011;65929;49.062;10.338;2024-03-02T00:30:37;16.58;;;8.15;;
76995;SDS011;65929;49.062;10.338;2024-03-02T00:32:02;16.40;;;8.35;;
76995;SDS011;65929;49.062;10.338;2024-03-02T00:33:05;21.95;;;8.52;;
76995;SDS011;65929;49.062;10.338;2024-03-02T00:34:07;18.15;;;7.78;;
76995;SDS011;65929;49.062;10.338;2024-03-02T00:35:09;16.92;;;8.38;;
76995;SDS011;65929;49.062;10.338;2024-03-02T00:36:12;19.40;;;8.25;;
76995;SDS011;65929;49.062;10.338;2024-03-02T00:37:14;18.40;;;8.15;;
76995;SDS011;65929;49.062;10.338;2024-03-02T00:38:15;16.30;;;7.85;;
76995;SDS011;65929;49.062;10.338;2024-03-02T00:39:16;17.10;;;8.35;;
76995;SDS011;65929;49.062;10.338;2024-03-02T00:40:17;17.45;;;7.93;;
76995;SDS011;65929;49.062;10.338;2024-03-02T00:41:21;20.58;;;9.23;;
76995;SDS011;65929;49.062;10.338;2024-03-02T00:42:23;19.15;;;8.55;;
76995;SDS011;65929;49.062;10.338;2024-03-02T00:43:43;21.75;;;8.38;;
76995;SDS011;65929;49.062;10.338;2024-03-02T00:44:47;16.38;;;7.47;;
76995;SDS011;65929;49.062;10.338;2024-03-02T00:45:48;16.77;;;7.90;;
76995;SDS011;65929;49.062;10.338;2024-03-02T00:46:49;17.42;;;8.25;;
76995;SDS011;65929;49.062;10.338;2024-03-02T00:47:50;19.50;;;8.00;;
76995;SDS011;65929;49.062;10.338;2024-03-02T00:48:52;17.35;;;7.80;;
76995;SDS011;65929;49.062;10.338;2024-03-02T00:49:55;18.98;;;9.05;;
76995;SDS011;65929;49.062;10.338;2024-03-02T00:50:57;15.15;;;7.90;;
76995;SDS011;65929;49.062;10.338;2024-03-02T00:51:58;20.17;;;8.40;;
76995;SDS011;65929;49.062;10.338;2024-03-02T00:52:59;18.25;;;8.18;;
76995;SDS011;65929;49.062;10.338;2024-03-02T00:54:03;17.48;;;8.38;;
76995;SDS011;65929;49.062;10.338;2024-03-02T00:55:05;18.00;;;8.40;;
76995;SDS011;65929;49.062;10.338;2024-03-02T00:56:08;17.83;;;8.45;;
76995;SDS011;65929;49.062;10.338;2024-03-02T00:57:11;18.45;;;8.25;;
76995;SDS011;65929;49.062;10.338;2024-03-02T00:58:12;19.10;;;8.30;;
76995;SDS011;65929;49.062;10.338;2024-03-02T00:59:13;16.50;;;8.27;;
76995;SDS011;65929;49.062;10.338;2024-03-02T01:00:15;17.13;;;8.68;;
76995;SDS011;65929;49.062;10.338;2024-03-02T01:01:17;18.77;;;8.73;;
76995;SDS011;65929;49.062;10.338;2024-03-02T01:02:19;19.65;;;8.77;;
76995;SDS011;65929;49.062;10.338;2024-03-02T01:03:20;20.27;;;8.93;;
76995;SDS011;65929;49.062;10.338;2024-03-02T01:04:21;18.48;;;8.70;;
76995;SDS011;65929;49.062;10.338;2024-03-02T01:05:22;18.83;;;8.65;;
76995;SDS011;65929;49.062;10.338;2024-03-02T01:06:25;21.65;;;9.20;;
76995;SDS011;65929;49.062;10.338;2024-03-02T01:07:26;18.25;;;9.52;;
76995;SDS011;65929;49.062;10.338;2024-03-02T01:08:26;17.27;;;8.73;;
76995;SDS011;65929;49.062;10.338;2024-03-02T01:09:27;21.15;;;8.80;;
76995;SDS011;65929;49.062;10.338;2024-03-02T01:10:28;17.60;;;8.20;;
76995;SDS011;65929;49.062;10.338;2024-03-02T01:11:29;17.73;;;8.32;;
76995;SDS011;65929;49.062;10.338;2024-03-02T01:12:30;19.50;;;8.23;;
76995;SDS011;65929;49.062;10.338;2024-03-02T01:13:31;18.77;;;8.13;;
76995;SDS011;65929;49.062;10.338;2024-03-02T01:14:32;18.20;;;8.15;;
76995;SDS011;65929;49.062;10.338;2024-03-02T01:15:33;21.05;;;9.50;;
76995;SDS011;65929;49.062;10.338;2024-03-02T01:16:34;17.38;;;8.13;;
76995;SDS011;65929;49.062;10.338;2024-03-02T01:17:35;18.92;;;8.80;;
76995;SDS011;65929;49.062;10.338;2024-03-02T01:18:36;21.10;;;9.10;;
76995;SDS011;65929;49.062;10.338;2024-03-02T01:19:37;17.63;;;8.95;;
76995;SDS011;65929;49.062;10.338;2024-03-02T01:20:39;18.17;;;8.55;;
76995;SDS011;65929;49.062;10.338;2024-03-02T01:21:41;16.35;;;7.68;;
76995;SDS011;65929;49.062;10.338;2024-03-02T01:22:42;21.33;;;8.82;;
76995;SDS011;65929;49.062;10.338;2024-03-02T01:23:43;17.85;;;8.35;;
76995;SDS011;65929;49.062;10.338;2024-03-02T01:24:44;21.63;;;8.88;;
76995;SDS011;65929;49.062;10.338;2024-03-02T01:25:45;16.70;;;8.07;;
76995;SDS011;65929;49.062;10.338;2024-03-02T01:26:47;17.15;;;8.57;;
76995;SDS011;65929;49.062;10.338;2024-03-02T01:27:48;20.08;;;8.73;;
76995;SDS011;65929;49.062;10.338;2024-03-02T01:28:49;17.48;;;8.68;;
76995;SDS011;65929;49.062;10.338;2024-03-02T01:29:49;21.08;;;8.63;;
76995;SDS011;65929;49.062;10.338;2024-03-02T01:30:50;17.02;;;8.68;;
76995;SDS011;65929;49.062;10.338;2024-03-02T01:31:51;18.13;;;8.02;;
76995;SDS011;65929;49.062;10.338;2024-03-02T01:32:53;18.77;;;7.65;;
76995;SDS011;65929;49.062;10.338;2024-03-02T01:33:54;20.90;;;8.52;;
76995;SDS011;65929;49.062;10.338;2024-03-02T01:34:56;19.00;;;8.38;;
76995;SDS011;65929;49.062;10.338;2024-03-02T01:35:56;20.30;;;8.75;;
76995;SDS011;65929;49.062;10.338;2024-03-02T01:36:59;19.40;;;8.40;;
76995;SDS011;65929;49.062;10.338;2024-03-02T01:38:00;17.27;;;8.75;;
76995;SDS011;65929;49.062;10.338;2024-03-02T01:39:01;19.45;;;8.27;;
76995;SDS011;65929;49.062;10.338;2024-03-02T01:40:02;16.40;;;7.80;;
76995;SDS011;65929;49.062;10.338;2024-03-02T01:41:08;20.08;;;7.93;;
76995;SDS011;65929;49.062;10.338;2024-03-02T01:42:09;18.42;;;8.55;;
76995;SDS011;65929;49.062;10.338;2024-03-02T01:43:10;21.00;;;8.50;;
76995;SDS011;65929;49.062;10.338;2024-03-02T01:44:11;20.52;;;9.23;;
76995;SDS011;65929;49.062;10.338;2024-03-02T01:45:12;20.65;;;9.40;;
76995;SDS011;65929;49.062;10.338;2024-03-02T01:46:13;20.88;;;9.18;;
76995;SDS011;65929;49.062;10.338;2024-03-02T01:47:14;21.48;;;8.73;;
76995;SDS011;65929;49.062;10.338;2024-03-02T01:48:15;20.65;;;8.98;;
76995;SDS011;65929;49.062;10.338;2024-03-02T01:49:16;23.73;;;9.38;;
76995;SDS011;65929;49.062;10.338;2024-03-02T01:50:23;19.83;;;9.23;;
76995;SDS011;65929;49.062;10.338;2024-03-02T01:51:25;20.33;;;9.23;;
76995;SDS011;65929;49.062;10.338;2024-03-02T01:52:27;19.13;;;8.70;;
76995;SDS011;65929;49.062;10.338;2024-03-02T01:53:29;18.75;;;8.50;;
76995;SDS011;65929;49.062;10.338;2024-03-02T01:54:30;19.83;;;9.07;;
76995;SDS011;65929;49.062;10.338;2024-03-02T01:55:31;21.33;;;8.50;;
76995;SDS011;65929;49.062;10.338;2024-03-02T01:56:33;21.00;;;8.60;;
76995;SDS011;65929;49.062;10.338;2024-03-02T01:57:34;23.17;;;10.38;;
76995;SDS011;65929;49.062;10.338;2024-03-02T01:58:35;22.08;;;9.20;;
76995;SDS011;65929;49.062;10.338;2024-03-02T01:59:36;20.48;;;8.55;;
76995;SDS011;65929;49.062;10.338;2024-03-02T02:00:37;17.83;;;8.82;;
76995;SDS011;65929;49.062;10.338;2024-03-02T02:01:38;22.85;;;9.05;;
76995;SDS011;65929;49.062;10.338;2024-03-02T02:02:39;17.08;;;7.80;;
76995;SDS011;65929;49.062;10.338;2024-03-02T02:03:40;19.98;;;8.73;;
76995;SDS011;65929;49.062;10.338;2024-03-02T02:04:41;19.92;;;8.55;;
76995;SDS011;65929;49.062;10.338;2024-03-02T02:05:42;19.25;;;8.25;;
76995;SDS011;65929;49.062;10.338;2024-03-02T02:06:43;19.75;;;9.00;;
76995;SDS011;65929;49.062;10.338;2024-03-02T02:07:46;21.83;;;9.68;;
76995;SDS011;65929;49.062;10.338;2024-03-02T02:08:47;21.15;;;8.73;;
76995;SDS011;65929;49.062;10.338;2024-03-02T02:09:48;22.90;;;8.85;;
76995;SDS011;65929;49.062;10.338;2024-03-02T02:10:49;21.45;;;9.25;;
76995;SDS011;65929;49.062;10.338;2024-03-02T02:11:50;20.60;;;8.75;;
76995;SDS011;65929;49.062;10.338;2024-03-02T02:12:51;22.45;;;8.82;;
76995;SDS011;65929;49.062;10.338;2024-03-02T02:13:52;22.77;;;8.85;;
76995;SDS011;65929;49.062;10.338;2024-03-02T02:14:55;20.70;;;8.95;;
76995;SDS011;65929;49.062;10.338;2024-03-02T02:16:03;19.75;;;8.30;;
76995;SDS011;65929;49.062;10.338;2024-03-02T02:17:05;23.70;;;9.07;;
76995;SDS011;65929;49.062;10.338;2024-03-02T02:18:06;18.75;;;9.35;;
76995;SDS011;65929;49.062;10.338;2024-03-02T02:19:07;17.45;;;7.47;;
76995;SDS011;65929;49.062;10.338;2024-03-02T02:20:08;18.48;;;8.40;;
76995;SDS011;65929;49.062;10.338;2024-03-02T02:21:09;17.40;;;8.48;;
76995;SDS011;65929;49.062;10.338;2024-03-02T02:22:11;17.42;;;7.60;;
76995;SDS011;65929;49.062;10.338;2024-03-02T02:23:12;20.38;;;8.18;;
76995;SDS011;65929;49.062;10.338;2024-03-02T02:24:13;18.05;;;9.30;;
76995;SDS011;65929;49.062;10.338;2024-03-02T02:25:14;18.40;;;8.43;;
76995;SDS011;65929;49.062;10.338;2024-03-02T02:26:15;18.77;;;9.07;;
76995;SDS011;65929;49.062;10.338;2024-03-02T02:27:16;21.98;;;9.68;;
76995;SDS011;65929;49.062;10.338;2024-03-02T02:28:17;17.60;;;7.63;;
76995;SDS011;65929;49.062;10.338;2024-03-02T02:29:18;20.63;;;9.45;;
76995;SDS011;65929;49.062;10.338;2024-03-02T02:30:19;18.00;;;7.90;;
76995;SDS011;65929;49.062;10.338;2024-03-02T02:31:21;21.73;;;8.00;;
76995;SDS011;65929;49.062;10.338;2024-03-02T02:32:22;17.23;;;7.65;;
76995;SDS011;65929;49.062;10.338;2024-03-02T02:33:23;19.02;;;7.47;;
76995;SDS011;65929;49.062;10.338;2024-03-02T02:34:24;19.17;;;8.95;;
76995;SDS011;65929;49.062;10.338;2024-03-02T02:35:25;19.85;;;8.38;;
76995;SDS011;65929;49.062;10.338;2024-03-02T02:36:26;17.67;;;8.57;;
76995;SDS011;65929;49.062;10.338;2024-03-02T02:37:28;22.13;;;8.10;;
76995;SDS011;65929;49.062;10.338;2024-03-02T02:38:29;20.00;;;8.60;;
76995;SDS011;65929;49.062;10.338;2024-03-02T02:39:32;20.38;;;8.40;;
76995;SDS011;65929;49.062;10.338;2024-03-02T02:40:33;20.17;;;8.25;;
76995;SDS011;65929;49.062;10.338;2024-03-02T02:41:34;16.65;;;7.75;;
76995;SDS011;65929;49.062;10.338;2024-03-02T02:42:35;19.55;;;7.63;;
76995;SDS011;65929;49.062;10.338;2024-03-02T02:43:35;20.60;;;8.65;;
76995;SDS011;65929;49.062;10.338;2024-03-02T02:44:36;18.13;;;7.55;;
76995;SDS011;65929;49.062;10.338;2024-03-02T02:45:37;20.02;;;8.40;;
76995;SDS011;65929;49.062;10.338;2024-03-02T02:46:38;19.35;;;8.15;;
76995;SDS011;65929;49.062;10.338;2024-03-02T02:47:39;19.55;;;8.35;;
76995;SDS011;65929;49.062;10.338;2024-03-02T02:48:40;19.05;;;7.93;;
76995;SDS011;65929;49.062;10.338;2024-03-02T02:49:43;18.60;;;7.53;;
76995;SDS011;65929;49.062;10.338;2024-03-02T02:50:44;16.40;;;6.97;;
76995;SDS011;65929;49.062;10.338;2024-03-02T02:51:45;16.90;;;8.35;;
76995;SDS011;65929;49.062;10.338;2024-03-02T02:52:47;18.65;;;8.27;;
76995;SDS011;65929;49.062;10.338;2024-03-02T02:53:48;18.88;;;7.97;;
76995;SDS011;65929;49.062;10.338;2024-03-02T02:54:49;17.40;;;7.90;;
76995;SDS011;65929;49.062;10.338;2024-03-02T02:55:50;17.42;;;7.25;;
76995;SDS011;65929;49.062;10.338;2024-03-02T02:56:51;17.38;;;7.18;;
76995;SDS011;65929;49.062;10.338;2024-03-02T02:57:52;17.52;;;7.80;;
76995;SDS011;65929;49.062;10.338;2024-03-02T02:58:53;17.73;;;8.13;;
76995;SDS011;65929;49.062;10.338;2024-03-02T02:59:53;17.73;;;7.50;;
76995;SDS011;65929;49.062;10.338;2024-03-02T03:00:54;17.20;;;7.88;;
76995;SDS011;65929;49.062;10.338;2024-03-02T03:01:56;15.40;;;7.75;;
76995;SDS011;65929;49.062;10.338;2024-03-02T03:02:57;18.48;;;8.13;;
76995;SDS011;65929;49.062;10.338;2024-03-02T03:03:58;19.77;;;7.97;;
76995;SDS011;65929;49.062;10.338;2024-03-02T03:04:59;17.25;;;7.60;;
76995;SDS011;65929;49.062;10.338;2024-03-02T03:06:00;19.83;;;8.00;;
76995;SDS011;65929;49.062;10.338;2024-03-02T03:07:02;19.70;;;8.25;;
76995;SDS011;65929;49.062;10.338;2024-03-02T03:08:05;17.60;;;7.32;;
76995;SDS011;65929;49.062;10.338;2024-03-02T03:09:06;16.10;;;6.72;;
76995;SDS011;65929;49.062;10.338;2024-03-02T03:10:07;20.13;;;8.43;;
76995;SDS011;65929;49.062;10.338;2024-03-02T03:11:08;16.33;;;7.90;;
76995;SDS011;65929;49.062;10.338;2024-03-02T03:12:09;19.27;;;7.55;;
76995;SDS011;65929;49.062;10.338;2024-03-02T03:13:10;18.98;;;7.95;;
76995;SDS011;65929;49.062;10.338;2024-03-02T03:14:11;17.38;;;7.35;;
76995;SDS011;65929;49.062;10.338;2024-03-02T03:15:12;18.58;;;8.00;;
76995;SDS011;65929;49.062;10.338;2024-03-02T03:16:13;16.60;;;7.70;;
76995;SDS011;65929;49.062;10.338;2024-03-02T03:17:14;16.27;;;7.35;;
76995;SDS011;65929;49.062;10.338;2024-03-02T03:18:15;18.20;;;7.82;;
76995;SDS011;65929;49.062;10.338;2024-03-02T03:19:16;18.20;;;8.70;;
76995;SDS011;65929;49.062;10.338;2024-03-02T03:20:16;17.90;;;7.45;;
76995;SDS011;65929;49.062;10.338;2024-03-02T03:21:17;18.70;;;7.38;;
76995;SDS011;65929;49.062;10.338;2024-03-02T03:22:18;18.80;;;7.63;;
76995;SDS011;65929;49.062;10.338;2024-03-02T03:23:21;17.88;;;8.00;;
76995;SDS011;65929;49.062;10.338;2024-03-02T03:24:21;18.70;;;7.22;;
76995;SDS011;65929;49.062;10.338;2024-03-02T03:25:22;19.52;;;7.53;;
76995;SDS011;65929;49.062;10.338;2024-03-02T03:26:23;18.73;;;7.13;;
76995;SDS011;65929;49.062;10.338;2024-03-02T03:27:24;18.80;;;8.38;;
76995;SDS011;65929;49.062;10.338;2024-03-02T03:28:26;16.13;;;7.25;;
76995;SDS011;65929;49.062;10.338;2024-03-02T03:29:27;15.95;;;7.05;;
76995;SDS011;65929;49.062;10.338;2024-03-02T03:30:28;19.83;;;7.75;;
76995;SDS011;65929;49.062;10.338;2024-03-02T03:31:29;20.65;;;8.48;;
76995;SDS011;65929;49.062;10.338;2024-03-02T03:32:30;18.42;;;8.30;;
76995;SDS011;65929;49.062;10.338;2024-03-02T03:33:31;17.08;;;8.23;;
76995;SDS011;65929;49.062;10.338;2024-03-02T03:34:32;19.58;;;8.75;;
76995;SDS011;65929;49.062;10.338;2024-03-02T03:35:33;20.85;;;8.57;;
76995;SDS011;65929;49.062;10.338;2024-03-02T03:36:34;21.08;;;8.60;;
76995;SDS011;65929;49.062;10.338;2024-03-02T03:37:37;21.17;;;9.02;;
76995;SDS011;65929;49.062;10.338;2024-03-02T03:38:39;20.92;;;8.20;;
76995;SDS011;65929;49.062;10.338;2024-03-02T03:39:40;19.02;;;8.55;;
76995;SDS011;65929;49.062;10.338;2024-03-02T03:40:41;22.02;;;8.68;;
76995;SDS011;65929;49.062;10.338;2024-03-02T03:41:42;17.85;;;8.13;;
76995;SDS011;65929;49.062;10.338;2024-03-02T03:42:43;18.58;;;9.02;;
76995;SDS011;65929;49.062;10.338;2024-03-02T03:43:44;19.85;;;7.70;;
76995;SDS011;65929;49.062;10.338;2024-03-02T03:44:45;20.80;;;8.50;;
76995;SDS011;65929;49.062;10.338;2024-03-02T03:45:46;17.77;;;8.43;;
76995;SDS011;65929;49.062;10.338;2024-03-02T03:46:47;17.77;;;8.98;;
76995;SDS011;65929;49.062;10.338;2024-03-02T03:47:48;23.00;;;9.27;;
76995;SDS011;65929;49.062;10.338;2024-03-02T03:48:48;17.65;;;7.95;;
76995;SDS011;65929;49.062;10.338;2024-03-02T03:49:49;20.83;;;8.57;;
76995;SDS011;65929;49.062;10.338;2024-03-02T03:50:50;18.67;;;8.25;;
76995;SDS011;65929;49.062;10.338;2024-03-02T03:51:51;17.40;;;8.25;;
76995;SDS011;65929;49.062;10.338;2024-03-02T03:52:52;19.70;;;9.35;;
76995;SDS011;65929;49.062;10.338;2024-03-02T03:53:54;17.77;;;8.30;;
76995;SDS011;65929;49.062;10.338;2024-03-02T03:54:55;18.60;;;8.05;;
76995;SDS011;65929;49.062;10.338;2024-03-02T03:55:56;17.67;;;7.93;;
76995;SDS011;65929;49.062;10.338;2024-03-02T03:56:57;16.60;;;7.68;;
76995;SDS011;65929;49.062;10.338;2024-03-02T04:07:24;16.60;;;7.10;;
76995;SDS011;65929;49.062;10.338;2024-03-02T04:08:25;19.65;;;7.57;;
76995;SDS011;65929;49.062;10.338;2024-03-02T04:09:27;19.33;;;7.88;;
76995;SDS011;65929;49.062;10.338;2024-03-02T04:10:28;16.23;;;7.72;;
76995;SDS011;65929;49.062;10.338;2024-03-02T04:11:30;18.25;;;7.65;;
76995;SDS011;65929;49.062;10.338;2024-03-02T04:12:31;20.67;;;8.15;;
76995;SDS011;65929;49.062;10.338;2024-03-02T04:13:32;17.63;;;7.72;;
76995;SDS011;65929;49.062;10.338;2024-03-02T04:14:33;18.80;;;7.68;;
76995;SDS011;65929;49.062;10.338;2024-03-02T04:15:33;17.77;;;7.50;;
76995;SDS011;65929;49.062;10.338;2024-03-02T04:16:34;18.35;;;7.57;;
76995;SDS011;65929;49.062;10.338;2024-03-02T04:17:35;17.13;;;7.90;;
76995;SDS011;65929;49.062;10.338;2024-03-02T04:18:37;19.02;;;8.32;;
76995;SDS011;65929;49.062;10.338;2024-03-02T04:19:38;19.35;;;8.43;;
76995;SDS011;65929;49.062;10.338;2024-03-02T04:20:39;18.42;;;8.48;;
76995;SDS011;65929;49.062;10.338;2024-03-02T04:21:40;20.67;;;8.90;;
76995;SDS011;65929;49.062;10.338;2024-03-02T04:22:41;19.38;;;8.35;;
76995;SDS011;65929;49.062;10.338;2024-03-02T04:23:42;22.20;;;8.70;;
76995;SDS011;65929;49.062;10.338;2024-03-02T04:24:44;21.55;;;9.02;;
76995;SDS011;65929;49.062;10.338;2024-03-02T04:25:45;16.33;;;7.68;;
76995;SDS011;65929;49.062;10.338;2024-03-02T04:26:46;18.20;;;8.35;;
76995;SDS011;65929;49.062;10.338;2024-03-02T04:27:47;19.05;;;8.32;;
76995;SDS011;65929;49.062;10.338;2024-03-02T04:28:47;20.45;;;8.50;;
76995;SDS011;65929;49.062;10.338;2024-03-02T04:29:48;20.42;;;9.02;;
76995;SDS011;65929;49.062;10.338;2024-03-02T04:30:49;20.80;;;8.77;;
76995;SDS011;65929;49.062;10.338;2024-03-02T04:31:50;18.70;;;8.57;;
76995;SDS011;65929;49.062;10.338;2024-03-02T04:32:51;17.80;;;8.43;;
76995;SDS011;65929;49.062;10.338;2024-03-02T04:33:52;24.00;;;9.70;;
76995;SDS011;65929;49.062;10.338;2024-03-02T04:34:54;19.02;;;8.15;;
76995;SDS011;65929;49.062;10.338;2024-03-02T04:35:55;20.42;;;9.18;;
76995;SDS011;65929;49.062;10.338;2024-03-02T04:36:56;22.65;;;9.63;;
76995;SDS011;65929;49.062;10.338;2024-03-02T04:37:56;18.55;;;9.07;;
76995;SDS011;65929;49.062;10.338;2024-03-02T04:38:57;21.17;;;9.77;;
76995;SDS011;65929;49.062;10.338;2024-03-02T04:40:00;20.42;;;9.27;;
76995;SDS011;65929;49.062;10.338;2024-03-02T04:41:01;23.65;;;10.13;;
76995;SDS011;65929;49.062;10.338;2024-03-02T04:42:02;24.40;;;9.63;;
76995;SDS011;65929;49.062;10.338;2024-03-02T04:43:03;25.40;;;10.55;;
76995;SDS011;65929;49.062;10.338;2024-03-02T04:44:04;20.80;;;9.82;;
76995;SDS011;65929;49.062;10.338;2024-03-02T04:45:07;23.65;;;9.68;;
76995;SDS011;65929;49.062;10.338;2024-03-02T04:46:08;22.50;;;10.10;;
76995;SDS011;65929;49.062;10.338;2024-03-02T04:47:09;21.23;;;9.80;;
76995;SDS011;65929;49.062;10.338;2024-03-02T04:48:10;21.63;;;9.57;;
76995;SDS011;65929;49.062;10.338;2024-03-02T04:49:11;20.95;;;9.23;;
76995;SDS011;65929;49.062;10.338;2024-03-02T04:50:12;22.50;;;10.48;;
76995;SDS011;65929;49.062;10.338;2024-03-02T04:51:13;20.10;;;9.63;;
76995;SDS011;65929;49.062;10.338;2024-03-02T04:52:14;24.05;;;10.00;;
76995;SDS011;65929;49.062;10.338;2024-03-02T04:53:15;19.40;;;8.73;;
76995;SDS011;65929;49.062;10.338;2024-03-02T04:54:16;24.10;;;10.57;;
76995;SDS011;65929;49.062;10.338;2024-03-02T04:55:18;20.58;;;9.48;;
76995;SDS011;65929;49.062;10.338;2024-03-02T04:56:19;22.35;;;9.63;;
76995;SDS011;65929;49.062;10.338;2024-03-02T04:57:23;22.08;;;9.27;;
76995;SDS011;65929;49.062;10.338;2024-03-02T04:58:24;19.20;;;9.10;;
76995;SDS011;65929;49.062;10.338;2024-03-02T04:59:24;23.33;;;8.98;;
76995;SDS011;65929;49.062;10.338;2024-03-02T05:00:26;19.52;;;9.07;;
76995;SDS011;65929;49.062;10.338;2024-03-02T05:01:27;20.55;;;8.77;;
76995;SDS011;65929;49.062;10.338;2024-03-02T05:02:28;22.05;;;9.13;;
76995;SDS011;65929;49.062;10.338;2024-03-02T05:03:29;19.50;;;9.10;;
76995;SDS011;65929;49.062;10.338;2024-03-02T05:04:30;20.35;;;8.48;;
76995;SDS011;65929;49.062;10.338;2024-03-02T05:05:31;18.80;;;8.80;;
76995;SDS011;65929;49.062;10.338;2024-03-02T05:06:32;18.45;;;8.10;;
76995;SDS011;65929;49.062;10.338;2024-03-02T05:07:32;22.05;;;10.07;;
76995;SDS011;65929;49.062;10.338;2024-03-02T05:08:33;18.48;;;8.60;;
76995;SDS011;65929;49.062;10.338;2024-03-02T05:09:34;20.02;;;8.90;;
76995;SDS011;65929;49.062;10.338;2024-03-02T05:10:37;17.38;;;7.85;;
76995;SDS011;65929;49.062;10.338;2024-03-02T05:11:37;20.38;;;8.18;;
76995;SDS011;65929;49.062;10.338;2024-03-02T05:12:38;20.08;;;8.40;;
76995;SDS011;65929;49.062;10.338;2024-03-02T05:13:42;19.27;;;8.27;;
76995;SDS011;65929;49.062;10.338;2024-03-02T05:14:43;21.88;;;9.02;;
76995;SDS011;65929;49.062;10.338;2024-03-02T05:15:44;23.23;;;9.25;;
76995;SDS011;65929;49.062;10.338;2024-03-02T05:16:45;21.35;;;8.73;;
76995;SDS011;65929;49.062;10.338;2024-03-02T05:17:46;19.38;;;8.40;;
76995;SDS011;65929;49.062;10.338;2024-03-02T05:18:47;21.40;;;8.73;;
76995;SDS011;65929;49.062;10.338;2024-03-02T05:19:48;23.38;;;9.45;;
76995;SDS011;65929;49.062;10.338;2024-03-02T05:20:49;21.73;;;9.25;;
76995;SDS011;65929;49.062;10.338;2024-03-02T05:21:50;22.55;;;9.05;;
76995;SDS011;65929;49.062;10.338;2024-03-02T05:22:51;19.67;;;8.75;;
76995;SDS011;65929;49.062;10.338;2024-03-02T05:23:52;22.85;;;10.55;;
76995;SDS011;65929;49.062;10.338;2024-03-02T05:24:53;22.67;;;9.15;;
76995;SDS011;65929;49.062;10.338;2024-03-02T05:25:55;20.95;;;9.55;;
76995;SDS011;65929;49.062;10.338;2024-03-02T05:26:56;22.35;;;9.85;;
76995;SDS011;65929;49.062;10.338;2024-03-02T05:27:57;20.00;;;9.15;;
76995;SDS011;65929;49.062;10.338;2024-03-02T05:28:58;23.30;;;9.05;;
76995;SDS011;65929;49.062;10.338;2024-03-02T05:29:59;23.13;;;10.35;;
76995;SDS011;65929;49.062;10.338;2024-03-02T05:31:00;22.90;;;9.00;;
76995;SDS011;65929;49.062;10.338;2024-03-02T05:32:01;20.73;;;8.68;;
76995;SDS011;65929;49.062;10.338;2024-03-02T05:33:02;28.42;;;9.43;;
76995;SDS011;65929;49.062;10.338;2024-03-02T05:34:03;17.88;;;8.65;;
76995;SDS011;65929;49.062;10.338;2024-03-02T05:35:05;23.70;;;9.30;;
76995;SDS011;65929;49.062;10.338;2024-03-02T05:36:08;22.88;;;9.32;;
76995;SDS011;65929;49.062;10.338;2024-03-02T05:37:09;22.15;;;9.85;;
76995;SDS011;65929;49.062;10.338;2024-03-02T05:38:10;22.85;;;9.60;;
76995;SDS011;65929;49.062;10.338;2024-03-02T05:39:11;20.48;;;8.20;;
76995;SDS011;65929;49.062;10.338;2024-03-02T05:40:12;22.27;;;9.90;;
76995;SDS011;65929;49.062;10.338;2024-03-02T05:41:14;22.05;;;9.25;;
76995;SDS011;65929;49.062;10.338;2024-03-02T05:42:15;23.00;;;9.00;;
76995;SDS011;65929;49.062;10.338;2024-03-02T05:43:19;24.65;;;9.02;;
76995;SDS011;65929;49.062;10.338;2024-03-02T05:44:20;23.85;;;9.00;;
76995;SDS011;65929;49.062;10.338;2024-03-02T05:45:22;25.60;;;10.00;;
76995;SDS011;65929;49.062;10.338;2024-03-02T05:46:23;22.70;;;10.20;;
76995;SDS011;65929;49.062;10.338;2024-03-02T05:47:24;23.83;;;10.25;;
76995;SDS011;65929;49.062;10.338;2024-03-02T05:48:25;25.65;;;9.98;;
76995;SDS011;65929;49.062;10.338;2024-03-02T05:49:26;24.13;;;10.20;;
76995;SDS011;65929;49.062;10.338;2024-03-02T05:50:26;20.30;;;9.07;;
76995;SDS011;65929;49.062;10.338;2024-03-02T05:51:27;22.88;;;8.95;;
76995;SDS011;65929;49.062;10.338;2024-03-02T05:52:28;22.50;;;8.75;;
76995;SDS011;65929;49.062;10.338;2024-03-02T05:53:29;22.45;;;10.35;;
76995;SDS011;65929;49.062;10.338;2024-03-02T05:54:30;24.60;;;9.93;;
76995;SDS011;65929;49.062;10.338;2024-03-02T05:55:31;24.00;;;9.73;;
76995;SDS011;65929;49.062;10.338;2024-03-02T05:56:33;18.52;;;8.98;;
76995;SDS011;65929;49.062;10.338;2024-03-02T05:57:35;23.95;;;10.10;;
76995;SDS011;65929;49.062;10.338;2024-03-02T05:58:45;22.98;;;10.07;;
76995;SDS011;65929;49.062;10.338;2024-03-02T06:00:04;22.38;;;9.57;;
76995;SDS011;65929;49.062;10.338;2024-03-02T06:01:08;20.95;;;9.00;;
76995;SDS011;65929;49.062;10.338;2024-03-02T06:02:09;24.98;;;10.45;;
76995;SDS011;65929;49.062;10.338;2024-03-02T06:03:10;25.55;;;10.05;;
76995;SDS011;65929;49.062;10.338;2024-03-02T06:04:11;26.70;;;10.30;;
76995;SDS011;65929;49.062;10.338;2024-03-02T06:05:12;22.85;;;10.48;;
76995;SDS011;65929;49.062;10.338;2024-03-02T06:06:13;24.13;;;9.50;;
76995;SDS011;65929;49.062;10.338;2024-03-02T06:07:14;24.88;;;10.52;;
76995;SDS011;65929;49.062;10.338;2024-03-02T06:08:15;26.85;;;10.38;;
76995;SDS011;65929;49.062;10.338;2024-03-02T06:09:15;18.77;;;9.05;;
76995;SDS011;65929;49.062;10.338;2024-03-02T06:10:16;21.33;;;10.48;;
76995;SDS011;65929;49.062;10.338;2024-03-02T06:11:18;22.50;;;10.60;;